EGGW/LTN METAR and TAF weather

Enter ICAO airport designator
Station Type Date Time Source
EGGW METAR 2019/04/19 22:20 UTC NOAA

EGGW 192220Z AUTO 01005KT 9999 NCD 11/08 Q1031


Station Type Date Time Source
EGGW Decoded METAR 2019/04/19 22:20 UTC NOAA

Luton Airport , United Kingdom (EGGW) 51-52N 000-22W
Apr 19, 2019 - 06:20 PM EDT / 2019.04.19 2220 UTC
Wind: from the N (010 degrees) at 6 MPH (5 KT):0
Visibility: greater than 7 mile(s):0
Temperature: 51 F (11 C)
Dew Point: 46 F (8 C)
Relative Humidity: 81%
Pressure (altimeter): 30.45 in. Hg (1031 hPa)
ob: EGGW 192220Z AUTO 01005KT 9999 NCD 11/08 Q1031
cycle: 22

Station Type Date Time Source
EGGW TAF 2019/04/19 18:06 UTC NOAA

TAF EGGW 191650Z 1918/2018 03007KT CAVOK
TEMPO 1921/2003 8000
BECMG 2003/2006 8000 PROB30 2003/2007 4000 HZ
BECMG 2006/2009 CAVOK

Example: see airport list